Flight Track Log - Related Links

Times and Time Zones

All times are in EDT time to prevent confusion due to time zone crossing. See the N1926Y flight status page for this flight to view local times or setup timezone preferences in your user account.

Time Position Orientation Groundspeed Altitude Reporting Facility
EDT Latitude Longitude Course Direction KTS MPH feet Rate Location/Type
Sun 07:39:53 AM 40.8500 -74.2833 180° South 79 91 1,100  Level New York TRACON
Sun 07:40:59 AM 40.8333 -74.2833 180° South 80 92 1,700 571 Climbing New York TRACON
Sun 07:41:59 AM 40.8000 -74.2833 180° South 90 104 2,300 526 Climbing New York TRACON
Sun 07:42:53 AM 40.8167 -74.3000 323° Northwest 86 99 2,700 450 Climbing New York TRACON
Sun 07:43:59 AM 40.8333 -74.3333 303° West 99 114 3,200 381 Climbing New York TRACON
Sun 07:44:59 AM 40.8667 -74.3500 339° North 105 121 3,500 350 Climbing New York TRACON
Sun 07:45:59 AM 40.8833 -74.3667 323° Northwest 110 127 3,900 250 Climbing New York TRACON
Sun 07:46:59 AM 40.9167 -74.3500 21° North 125 144 4,000 50 Climbing New York TRACON
Sun 07:47:59 AM 40.9667 -74.3500 360° North 133 153 4,000  Level New York TRACON
Sun 07:48:59 AM 41.0000 -74.3500 360° North 136 157 4,000  Level New York TRACON
Sun 07:49:53 AM 41.0333 -74.3500 360° North 136 157 4,000  Level New York TRACON
Sun 07:50:53 AM 41.0667 -74.3500 360° North 138 159 4,000  Level New York TRACON
Sun 07:51:53 AM 41.1000 -74.3333 21° North 140 161 4,000  Level New York TRACON
Sun 07:52:53 AM 41.1333 -74.3000 37° Northeast 145 167 4,000  Level New York TRACON
Sun 07:53:53 AM 41.1667 -74.2667 37° Northeast 143 165 4,000  Level New York TRACON
Sun 07:54:53 AM 41.2000 -74.2333 37° Northeast 143 165 4,000  Level New York TRACON
Sun 07:55:47 AM 41.2333 -74.2167 21° North 140 161 4,000  Level New York TRACON
Sun 07:56:47 AM 41.2667 -74.1833 37° Northeast 139 160 4,000  Level New York TRACON
Sun 07:57:47 AM 41.2833 -74.1500 56° Northeast 140 161 4,000  Level New York TRACON
Sun 07:58:47 AM 41.3167 -74.1167 37° Northeast 138 159 4,000  Level New York TRACON
Sun 07:59:41 AM 41.3500 -74.1000 21° North 139 160 4,000  Level New York TRACON
Sun 08:00:47 AM 41.3833 -74.0667 37° Northeast 139 160 4,000  Level New York TRACON
Sun 08:01:53 AM 41.4167 -74.0167 48° Northeast 144 166 4,000  Level New York TRACON
Sun 08:02:47 AM 41.4167 -73.9833 90° East 145 167 4,000  Level New York TRACON
Sun 08:03:47 AM 41.4333 -73.9167 72° East 147 169 4,000  Level New York TRACON
Sun 08:04:47 AM 41.4500 -73.8667 66° East 147 169 4,000  Level New York TRACON
Sun 08:05:53 AM 41.4500 -73.8167 90° East 145 167 4,000 -238 Level New York TRACON
Sun 08:06:53 AM 41.4667 -73.7667 66° East 130 150 3,500 -500 Descending New York TRACON
Sun 08:07:53 AM 41.4833 -73.7333 56° Northeast 124 143 3,000 -250 Descending New York TRACON
Sun 08:08:53 AM 41.5000 -73.6833 66° East 133 153 3,000  Level New York TRACON
Sun 08:09:53 AM 41.5333 -73.6500 37° Northeast 139 160 3,000 -100 Level New York TRACON
Sun 08:10:53 AM 41.5500 -73.6333 37° Northeast 133 153 2,800 -300 Descending New York TRACON
Sun 08:11:53 AM 41.5833 -73.6500 339° North 118 136 2,400 -200 Descending New York TRACON
Sun 08:12:53 AM 41.6167 -73.6667 340° North 100 115 2,400 50 Level New York TRACON
Sun 08:13:53 AM 41.6333 -73.6833 323° Northwest 100 115 2,500 -250 Climbing New York TRACON
Sun 08:14:53 AM 41.6500 -73.7000 323° Northwest 95 109 1,900 -550 Descending New York TRACON
Sun 08:15:53 AM 41.6833 -73.7167 340° North 88 101 1,400 -50 Descending New York TRACON
Sun 08:16:53 AM 41.7000 -73.7333 323° Northwest 86 99 1,800 474 Climbing New York TRACON
Sun 08:17:47 AM 41.7167 -73.7500 323° Northwest 87 100 2,300 579 Climbing New York TRACON
Sun 08:18:47 AM 41.7333 -73.7667 323° Northwest 91 105 2,900 400 Climbing New York TRACON
Sun 08:19:47 AM 41.7167 -73.8000 236° Southwest 113 130 3,100 400 Climbing New York TRACON
Sun 08:20:47 AM 41.7000 -73.8333 236° Southwest 106 122 3,700 450 Climbing New York TRACON
Sun 08:21:47 AM 41.6833 -73.8667 236° Southwest 108 124 4,000 150 Climbing New York TRACON
Sun 08:22:47 AM 41.6667 -73.9000 236° Southwest 122 140 4,000  Level New York TRACON
Sun 08:23:47 AM 41.6333 -73.9333 217° Southwest 124 143 4,000  Level New York TRACON
Sun 08:24:47 AM 41.6167 -73.9667 236° Southwest 127 146 4,000  Level New York TRACON
Sun 08:25:41 AM 41.6000 -73.9833 217° Southwest 127 146 4,000  Level New York TRACON
Sun 08:26:47 AM 41.5667 -74.0333 228° Southwest 127 146 4,000  Level New York TRACON
Sun 08:27:47 AM 41.5333 -74.0500 201° Southwest 124 143 4,000  Level New York TRACON
Sun 08:28:47 AM 41.5000 -74.0833 217° Southwest 119 137 4,000  Level New York TRACON
Sun 08:29:41 AM 41.4833 -74.1000 217° Southwest 111 128 4,000  Level New York TRACON
Sun 08:30:41 AM 41.4500 -74.1167 201° Southwest 123 142 4,000  Level New York TRACON
Sun 08:31:41 AM 41.4167 -74.1167 180° South 131 151 4,000  Level New York TRACON
Sun 08:32:41 AM 41.3833 -74.1333 201° Southwest 128 147 4,000  Level New York TRACON
Sun 08:33:41 AM 41.3500 -74.1500 201° Southwest 130 150 4,000  Level New York TRACON
Sun 08:34:35 AM 41.3167 -74.1500 180° South 132 152 4,000  Level New York TRACON
Sun 08:35:35 AM 41.2833 -74.1500 180° South 134 154 4,000 -250 Level New York TRACON
Sun 08:36:35 AM 41.2333 -74.1500 180° South 139 160 3,500 -450 Descending New York TRACON
Sun 08:37:35 AM 41.2000 -74.1500 180° South 138 159 3,100 -238 Descending New York TRACON
Sun 08:38:41 AM 41.1667 -74.1500 180° South 131 151 3,000 -45 Descending New York TRACON
Sun 08:39:47 AM 41.1167 -74.1500 180° South 134 154 3,000  Level New York TRACON
Sun 08:40:47 AM 41.0833 -74.1500 180° South 133 153 3,000 -100 Level New York TRACON
Sun 08:41:47 AM 41.0500 -74.1500 180° South 133 153 2,800 -300 Descending New York TRACON
Sun 08:42:47 AM 41.0167 -74.1833 217° Southwest 133 153 2,400 -350 Descending New York TRACON
Sun 08:43:47 AM 40.9833 -74.2000 201° Southwest 100 115 2,100 -200 Descending New York TRACON
Sun 08:44:47 AM 40.9667 -74.2167 217° Southwest 84 97 2,000 -100 Descending New York TRACON
Sun 08:45:47 AM 40.9500 -74.2333 217° Southwest 93 107 1,900 -350 Descending New York TRACON
Sun 08:46:47 AM 40.9333 -74.2500 217° Southwest 87 100 1,300 -450 Descending New York TRACON
Sun 08:47:47 AM 40.9000 -74.2500 180° South 80 92 1,000 -300 Descending New York TRACON
Sun 08:49:00 AM 40.9407 -74.2246 25° Northeast  Level Estimated
Sun 08:56:00 AM 41.1744 -74.0776 25° Northeast  Level Estimated
Sun 08:57:00 AM 41.2078 -74.0565 25° Northeast  Level Estimated
Sun 08:58:00 AM 41.2412 -74.0354 25° Northeast  Level Estimated
Sun 08:59:00 AM 41.2745 -74.0143 25° Northeast  Level Estimated
Sun 09:00:00 AM 41.3079 -73.9931 25° Northeast  Level Estimated
Sun 09:01:00 AM 41.3413 -73.9719 25° Northeast  Level Estimated
Sun 09:02:00 AM 41.3746 -73.9508 25° Northeast  Level Estimated
Sun 09:03:00 AM 41.4080 -73.9296 25° Northeast  Level Estimated
Sun 09:04:00 AM 41.4413 -73.9083 26° Northeast  Level Estimated
Sun 09:05:00 AM 41.4747 -73.8870 26° Northeast  Level Estimated
Sun 09:06:00 AM 41.5080 -73.8658 26° Northeast  Level Estimated
Sun 09:07:00 AM 41.5414 -73.8445 26° Northeast  Level Estimated
Sun 09:08:00 AM 41.5747 -73.8232 26° Northeast  Level Estimated
Sun 09:09:00 AM 41.6080 -73.8018 26° Northeast  Level Estimated
Sun 09:10:00 AM 41.6414 -73.7804 26° Northeast  Level Estimated
Sun 09:11:00 AM 41.6747 -73.7590 26° Northeast  Level Estimated
Sun 09:12:00 AM 41.7074 -73.7380 26° Northeast  Level Estimated
Sun 09:13:00 AM 41.7074 -73.7380 154° Southeast  Level Estimated
Sun 09:14:00 AM 41.7074 -73.7380 154° Southeast  Level Estimated
Sun 09:15:00 AM 41.7074 -73.7380 154° Southeast  Level Estimated
Sun 09:16:00 AM 41.7074 -73.7380 154° Southeast  Level Estimated
Sun 09:17:00 AM 41.7074 -73.7380 154° Southeast  Level Estimated
Sun 09:18:00 AM 41.7074 -73.7380 154° Southeast  Level Estimated

Login

Don't have an account? Register now (free) for customized features, flight alerts, and more!